Time;durP1;ratioP1;P1;durP2;ratioP2;P2;SDS_P1;SDS_P2;PMS_P1;PMS_P2;Temp;Humidity;BMP_temperature;BMP_pressure;BME280_temperature;BME280_humidity;BME280_pressure;Samples;Min_cycle;Max_cycle;Signal;HPM_P1;HPM_P2
2021/12/15 00:01:10;;;;;;;30.17;18.07;;;;;;;4.57;74.93;100675.63;5027434;28;20233;-64
2021/12/15 00:03:37;;;;;;;30.80;18.33;;;;;;;4.79;74.13;100674.94;5027577;28;20239;-64
2021/12/15 00:06:12;;;;;;;32.83;19.10;;;;;;;4.01;76.17;100676.03;5026789;28;20233;-64
2021/12/15 00:08:40;;;;;;;32.17;18.67;;;;;;;4.30;76.26;100673.16;5026215;28;20229;-64
2021/12/15 00:11:07;;;;;;;33.53;18.73;;;;;;;4.45;75.64;100680.00;5025790;28;20256;-64
2021/12/15 00:13:37;;;;;;;28.17;18.57;;;;;;;4.09;76.31;100680.78;5025303;28;20236;-64
2021/12/15 00:16:06;;;;;;;30.83;17.97;;;;;;;4.31;75.78;100675.69;5030406;28;20235;-64
2021/12/15 00:18:34;;;;;;;28.37;17.97;;;;;;;4.57;75.01;100670.34;5029358;28;20614;-64
2021/12/15 00:21:03;;;;;;;29.23;17.60;;;;;;;4.11;75.88;100663.03;5030721;28;20233;-64
2021/12/15 00:23:30;;;;;;;31.33;17.53;;;;;;;4.25;75.44;100667.34;5018748;28;20235;-64
2021/12/15 00:25:57;;;;;;;29.23;16.40;;;;;;;4.78;74.25;100677.69;5023518;28;20343;-64
2021/12/15 00:28:24;;;;;;;29.17;17.73;;;;;;;4.12;75.45;100664.72;5029750;28;20235;-64
2021/12/15 00:30:51;;;;;;;27.37;17.13;;;;;;;4.31;75.68;100664.28;5029593;28;20615;-64
2021/12/15 00:33:18;;;;;;;27.77;17.37;;;;;;;4.62;74.89;100670.00;5023212;28;20223;-64
2021/12/15 00:35:46;;;;;;;28.80;17.43;;;;;;;4.75;74.16;100668.16;5006057;28;20240;-64
2021/12/15 00:38:13;;;;;;;29.87;17.37;;;;;;;4.34;75.67;100664.91;5008234;28;20250;-64
2021/12/15 00:40:40;;;;;;;31.37;17.33;;;;;;;4.25;75.95;100662.06;5029080;28;20548;-64
2021/12/15 00:43:07;;;;;;;30.47;18.57;;;;;;;4.39;75.46;100661.09;5030884;28;20738;-64
2021/12/15 00:45:35;;;;;;;31.53;17.07;;;;;;;4.55;74.57;100659.03;5029879;28;20229;-64
2021/12/15 00:48:02;;;;;;;30.83;17.50;;;;;;;4.66;73.75;100652.97;5029991;28;20245;-64
2021/12/15 00:50:33;;;;;;;30.97;18.57;;;;;;;4.27;76.10;100663.66;5028981;28;20251;-64
2021/12/15 00:53:02;;;;;;;33.03;17.40;;;;;;;4.69;74.43;100669.44;5029826;28;20232;-64
2021/12/15 00:55:29;;;;;;;33.23;17.77;;;;;;;3.72;77.87;100663.03;5012461;28;20239;-64
2021/12/15 00:57:58;;;;;;;32.90;19.73;;;;;;;4.51;75.40;100666.31;5029413;28;20229;-64
2021/12/15 01:00:31;;;;;;;28.80;18.10;;;;;;;4.89;73.92;100665.34;5029071;28;20224;-64
2021/12/15 01:02:58;;;;;;;31.70;18.13;;;;;;;3.47;77.29;100652.47;5029972;28;20556;-64
2021/12/15 01:05:32;;;;;;;35.20;21.10;;;;;;;4.06;78.08;100681.00;5028374;28;21025;-64
2021/12/15 01:08:00;;;;;;;33.17;19.87;;;;;;;2.96;78.75;100666.34;5029629;28;20239;-64
2021/12/15 01:10:42;;;;;;;28.53;18.03;;;;;;;1.89;85.47;100712.50;5028381;28;20224;-64
2021/12/15 01:21:17;;;;;;;32.33;19.77;;;;;;;3.09;83.22;100705.97;5029543;28;20241;-64
2021/12/15 01:23:44;;;;;;;33.00;22.07;;;;;;;3.28;79.01;100690.59;5029086;28;20255;-64
2021/12/15 01:26:14;;;;;;;32.10;20.67;;;;;;;2.12;83.24;100720.75;5028868;28;20239;-64
2021/12/15 01:28:41;;;;;;;34.63;20.33;;;;;;;2.94;80.02;100694.63;5028415;28;20229;-64
2021/12/15 01:31:09;;;;;;;35.77;21.57;;;;;;;2.19;84.39;100737.91;5028757;28;20225;-64
2021/12/15 01:33:37;;;;;;;33.43;21.23;;;;;;;4.15;77.73;100670.63;5009733;28;20225;-64
2021/12/15 01:36:06;;;;;;;35.80;21.00;;;;;;;3.17;79.99;100696.59;5015883;28;20235;-64
2021/12/15 01:38:36;;;;;;;30.00;19.50;;;;;;;3.22;79.53;100683.94;5027851;28;20240;-64
2021/12/15 01:41:05;;;;;;;30.47;18.47;;;;;;;3.02;81.32;100711.63;5016920;28;20708;-64
2021/12/15 01:46:51;;;;;;;33.30;19.70;;;;;;;2.50;81.64;100712.31;5018908;28;20241;-64
2021/12/15 01:47:02;;;;;;;33.13;19.30;;;;;;;3.43;79.94;100684.34;5009011;28;20233;-64
2021/12/15 01:49:37;;;;;;;30.60;18.53;;;;;;;4.39;76.32;100672.50;5017411;28;20745;-64
2021/12/15 01:52:14;;;;;;;28.83;17.87;;;;;;;3.20;78.73;100692.91;5029352;28;20227;-64
2021/12/15 01:54:44;;;;;;;32.17;17.70;;;;;;;3.84;78.47;100685.13;5000667;28;22008;-64
2021/12/15 01:57:12;;;;;;;30.63;16.07;;;;;;;2.24;84.14;100729.69;5026676;28;20251;-64
2021/12/15 01:59:42;;;;;;;29.43;16.90;;;;;;;2.14;85.52;100742.59;5028862;28;20228;-64
2021/12/15 02:02:09;;;;;;;30.27;16.50;;;;;;;2.98;82.63;100725.09;5028978;28;20734;-64
2021/12/15 02:04:36;;;;;;;28.07;15.63;;;;;;;3.11;81.45;100710.16;5028603;28;20232;-64
2021/12/15 02:07:05;;;;;;;29.63;16.73;;;;;;;3.38;81.59;100704.91;5028859;28;20233;-64
2021/12/15 02:12:09;;;;;;;28.50;16.43;;;;;;;4.13;77.23;100676.97;5028748;28;20232;-64
2021/12/15 02:14:37;;;;;;;24.93;14.77;;;;;;;3.03;80.67;100701.91;5028171;28;21032;-65
2021/12/15 02:17:04;;;;;;;25.97;14.57;;;;;;;4.48;75.83;100676.28;5027825;28;20224;-64
2021/12/15 02:19:31;;;;;;;24.37;15.43;;;;;;;3.93;75.49;100665.19;5028197;28;20342;-64
2021/12/15 02:21:59;;;;;;;28.20;15.60;;;;;;;4.28;76.80;100675.91;5026061;28;20224;-64
2021/12/15 02:24:27;;;;;;;26.67;15.17;;;;;;;4.51;75.11;100662.84;5017737;28;20916;-65
2021/12/15 02:26:59;;;;;;;27.33;15.83;;;;;;;4.05;75.97;100661.69;5023239;28;20714;-64
2021/12/15 02:29:30;;;;;;;24.57;15.93;;;;;;;4.54;75.39;100670.56;5026801;28;20228;-64
2021/12/15 02:32:10;;;;;;;24.40;16.03;;;;;;;4.49;75.01;100672.69;5028152;28;20224;-64
2021/12/15 02:37:43;;;;;;;28.50;16.47;;;;;;;4.23;76.43;100678.03;4993439;28;20241;-64
2021/12/15 02:40:16;;;;;;;28.73;16.70;;;;;;;3.05;81.88;100726.38;4982975;28;20260;-64
2021/12/15 02:42:46;;;;;;;31.27;15.97;;;;;;;4.01;77.35;100677.84;4996287;28;21609;-64
2021/12/15 02:45:17;;;;;;;23.33;15.53;;;;;;;3.31;80.18;100703.59;5006953;28;20237;-64
2021/12/15 02:47:45;;;;;;;26.87;15.60;;;;;;;2.49;81.84;100707.97;5008581;28;20712;-64
2021/12/15 02:50:18;;;;;;;28.70;16.37;;;;;;;2.85;81.88;100712.72;5007579;28;20614;-64
2021/12/15 02:52:45;;;;;;;25.37;15.27;;;;;;;4.20;76.77;100675.59;5007818;28;20582;-64
2021/12/15 02:55:14;;;;;;;28.57;15.60;;;;;;;2.92;80.30;100701.78;5009900;28;20243;-64
2021/12/15 02:57:42;;;;;;;26.93;16.93;;;;;;;3.71;79.38;100687.75;5027533;28;20243;-64
2021/12/15 03:00:20;;;;;;;27.27;16.67;;;;;;;4.38;76.05;100686.66;5025550;28;20225;-64
2021/12/15 03:05:44;;;;;;;24.87;15.37;;;;;;;4.75;74.36;100678.72;5027854;28;20239;-64
2021/12/15 03:08:17;;;;;;;27.83;16.90;;;;;;;5.03;72.77;100674.13;5042056;28;20228;-64
2021/12/15 03:16:24;;;;;;;29.63;17.00;;;;;;;4.53;74.80;100671.50;5026647;28;20235;-64
2021/12/15 03:18:51;;;;;;;26.80;16.73;;;;;;;4.41;74.96;100678.50;5040538;28;20692;-64
2021/12/15 03:21:22;;;;;;;29.20;16.47;;;;;;;4.27;76.25;100691.88;5027410;28;20244;-64
2021/12/15 03:23:55;;;;;;;30.37;17.23;;;;;;;5.15;72.62;100681.13;5028011;28;20606;-64
2021/12/15 03:26:30;;;;;;;27.43;17.00;;;;;;;4.89;73.23;100673.28;5021770;28;20697;-64
2021/12/15 03:39:30;;;;;;;28.57;17.47;;;;;;;2.53;81.78;100714.75;5005554;28;20224;-63
2021/12/15 03:42:02;;;;;;;32.07;17.03;;;;;;;3.05;81.14;100703.50;5022872;28;20222;-64
2021/12/15 03:44:33;;;;;;;31.77;18.30;;;;;;;3.48;78.92;100683.19;5019472;28;20221;-64
2021/12/15 03:47:01;;;;;;;29.37;16.73;;;;;;;4.19;77.06;100678.34;5029446;28;20235;-64
2021/12/15 03:49:28;;;;;;;32.37;18.67;;;;;;;3.80;77.41;100678.38;5027070;28;20338;-64
2021/12/15 03:51:55;;;;;;;33.83;18.60;;;;;;;4.53;75.02;100677.66;5030892;28;20221;-64
2021/12/15 03:54:22;;;;;;;32.70;17.20;;;;;;;4.64;74.03;100682.16;5030321;28;20233;-63
2021/12/15 03:56:50;;;;;;;33.17;18.97;;;;;;;4.12;75.25;100672.66;5030781;28;20228;-64
2021/12/15 03:59:19;;;;;;;29.73;16.40;;;;;;;4.70;74.25;100670.28;5030950;28;20698;-63
2021/12/15 04:01:46;;;;;;;33.00;17.00;;;;;;;5.07;72.98;100678.22;5030414;28;20243;-64
2021/12/15 04:04:13;;;;;;;30.60;17.93;;;;;;;4.82;74.51;100687.91;5031146;28;20244;-64
2021/12/15 04:06:41;;;;;;;31.77;17.60;;;;;;;4.56;74.97;100683.66;5028959;28;22060;-64
2021/12/15 04:09:11;;;;;;;27.93;17.43;;;;;;;5.03;73.04;100682.03;5030243;28;20245;-64
2021/12/15 04:11:40;;;;;;;29.93;17.20;;;;;;;5.05;72.57;100680.13;5031031;28;20227;-64
2021/12/15 04:14:11;;;;;;;30.03;17.00;;;;;;;5.34;71.25;100679.75;5030253;28;20270;-64
2021/12/15 04:19:11;;;;;;;29.40;17.03;;;;;;;2.74;79.91;100722.25;5029348;28;20229;-64
2021/12/15 04:21:39;;;;;;;28.70;16.33;;;;;;;4.45;75.01;100693.22;5029368;28;20224;-64
2021/12/15 04:24:07;;;;;;;29.10;16.33;;;;;;;4.27;76.63;100710.34;5030633;28;20918;-64
2021/12/15 04:26:34;;;;;;;30.63;17.50;;;;;;;4.50;74.14;100688.44;5029912;28;20232;-64
2021/12/15 04:29:03;;;;;;;28.70;16.07;;;;;;;4.80;73.36;100687.16;5029904;28;20241;-64
2021/12/15 04:31:34;;;;;;;30.37;16.50;;;;;;;4.88;73.10;100689.25;5029885;28;20217;-64
2021/12/15 04:34:10;;;;;;;30.90;16.13;;;;;;;2.04;83.80;100746.69;5020329;28;20267;-66
2021/12/15 04:36:40;;;;;;;26.90;16.47;;;;;;;3.11;82.20;100743.59;5029843;28;20224;-66
2021/12/15 04:39:10;;;;;;;32.30;16.73;;;;;;;3.67;80.28;100722.38;5030065;28;20244;-67
2021/12/15 04:41:37;;;;;;;27.90;16.13;;;;;;;2.33;83.88;100759.91;5029537;28;20230;-67
2021/12/15 04:44:10;;;;;;;30.60;16.53;;;;;;;4.12;77.32;100705.19;5028828;28;20233;-67
2021/12/15 04:46:42;;;;;;;29.17;16.07;;;;;;;4.83;73.90;100699.34;5019063;28;20224;-64
2021/12/15 04:49:13;;;;;;;27.37;16.70;;;;;;;4.08;76.50;100714.28;5002442;28;20230;-64
2021/12/15 04:51:40;;;;;;;36.33;17.13;;;;;;;4.68;72.83;100688.06;5004102;28;20226;-64
2021/12/15 04:54:07;;;;;;;31.80;17.70;;;;;;;2.93;80.71;100751.72;5014031;28;20225;-63
2021/12/15 04:56:35;;;;;;;36.30;17.40;;;;;;;4.16;77.16;100714.59;5018187;28;20233;-64
2021/12/15 04:59:02;;;;;;;32.87;18.63;;;;;;;4.19;76.33;100708.25;5008653;28;20225;-63
2021/12/15 05:01:29;;;;;;;33.97;17.80;;;;;;;4.62;74.07;100697.28;5009507;28;20247;-64
2021/12/15 05:03:58;;;;;;;35.17;18.13;;;;;;;4.53;74.72;100704.09;5010304;28;20226;-64
2021/12/15 05:06:25;;;;;;;35.67;19.13;;;;;;;3.97;75.83;100712.34;5015395;28;20228;-64
2021/12/15 05:08:52;;;;;;;40.23;20.13;;;;;;;4.34;75.43;100719.53;5028210;28;20229;-64
2021/12/15 05:11:19;;;;;;;36.80;17.97;;;;;;;4.03;76.40;100721.66;5023616;28;20232;-64
2021/12/15 05:13:47;;;;;;;36.33;18.83;;;;;;;4.62;74.35;100707.84;5026092;28;20609;-64
2021/12/15 05:16:16;;;;;;;43.33;19.43;;;;;;;4.32;74.63;100705.59;5029560;28;20237;-63
2021/12/15 05:18:44;;;;;;;51.33;21.20;;;;;;;4.56;73.99;100710.09;5028730;28;20683;-64
2021/12/15 05:21:11;;;;;;;47.43;21.20;;;;;;;4.43;74.64;100716.22;5021201;28;20331;-64
2021/12/15 05:23:43;;;;;;;57.20;21.10;;;;;;;4.19;75.16;100715.31;5019480;28;20267;-64
2021/12/15 05:26:11;;;;;;;50.33;19.57;;;;;;;3.90;77.32;100744.59;5013107;28;20234;-64
2021/12/15 05:28:38;;;;;;;57.83;21.57;;;;;;;3.98;77.32;100737.81;5028527;28;20715;-63
2021/12/15 05:31:05;;;;;;;53.50;21.20;;;;;;;3.40;79.34;100754.91;5028805;28;20217;-64
2021/12/15 05:33:33;;;;;;;57.87;21.00;;;;;;;4.26;75.99;100725.34;5029040;28;20224;-63
2021/12/15 05:36:00;;;;;;;63.77;22.53;;;;;;;3.49;77.94;100745.53;5028868;28;20240;-63
2021/12/15 05:38:27;;;;;;;63.87;23.80;;;;;;;4.12;77.13;100734.22;5028144;28;20233;-64
2021/12/15 05:40:56;;;;;;;64.93;22.00;;;;;;;2.89;80.04;100766.06;5028840;28;20225;-63
2021/12/15 05:43:23;;;;;;;69.70;24.47;;;;;;;2.79;82.11;100776.31;5029028;28;20223;-63
2021/12/15 05:45:51;;;;;;;65.70;23.07;;;;;;;4.16;77.55;100740.13;5018453;28;20236;-63
2021/12/15 05:48:20;;;;;;;67.30;24.40;;;;;;;4.35;75.42;100723.88;5015594;28;20244;-64
2021/12/15 05:50:50;;;;;;;58.67;22.10;;;;;;;4.03;76.88;100741.94;5003817;28;20233;-64
2021/12/15 05:53:18;;;;;;;64.80;22.70;;;;;;;1.78;85.06;100793.81;5001147;28;20218;-63
2021/12/15 05:55:45;;;;;;;55.30;23.07;;;;;;;3.77;79.88;100745.38;5015804;28;20832;-63
2021/12/15 05:58:12;;;;;;;63.53;23.67;;;;;;;2.90;79.20;100765.13;5028573;28;20232;-64
2021/12/15 06:00:42;;;;;;;66.20;23.40;;;;;;;2.05;84.10;100801.88;5027345;28;20862;-64
2021/12/15 06:03:09;;;;;;;58.33;22.80;;;;;;;4.15;77.49;100733.19;5028136;28;20732;-63
2021/12/15 06:05:38;;;;;;;63.03;22.53;;;;;;;3.45;77.26;100744.91;5028479;28;20239;-63
2021/12/15 06:08:05;;;;;;;64.83;23.27;;;;;;;4.18;76.80;100727.69;5022822;28;20324;-64
2021/12/15 06:10:35;;;;;;;63.27;22.40;;;;;;;3.73;78.33;100748.34;5023407;28;20231;-63
2021/12/15 06:13:05;;;;;;;64.80;22.90;;;;;;;4.42;75.92;100742.78;5028846;28;20259;-64
2021/12/15 06:15:33;;;;;;;67.50;22.97;;;;;;;3.59;79.73;100778.28;5028130;28;20238;-63
2021/12/15 06:18:05;;;;;;;65.37;23.53;;;;;;;4.49;75.98;100746.69;5027886;28;20236;-64
2021/12/15 06:20:33;;;;;;;57.13;22.57;;;;;;;4.51;74.83;100729.75;5027760;28;20242;-64
2021/12/15 06:23:05;;;;;;;76.43;28.27;;;;;;;3.88;77.30;100760.50;5028265;28;20229;-63
2021/12/15 06:25:32;;;;;;;72.53;24.10;;;;;;;4.82;73.70;100740.78;5028248;28;20234;-64
2021/12/15 06:27:59;;;;;;;66.80;24.20;;;;;;;4.06;76.63;100755.75;5028230;28;20235;-63
2021/12/15 06:30:26;;;;;;;78.80;24.20;;;;;;;4.82;73.59;100742.56;5026925;28;20239;-63
2021/12/15 06:32:53;;;;;;;64.20;22.47;;;;;;;4.64;73.51;100731.53;5028426;28;20236;-64
2021/12/15 06:35:20;;;;;;;66.77;23.23;;;;;;;4.88;72.96;100742.97;5042529;28;20330;-64
2021/12/15 06:37:47;;;;;;;78.03;26.93;;;;;;;3.23;77.20;100755.97;5028267;28;20307;-64
2021/12/15 06:40:14;;;;;;;76.90;24.60;;;;;;;2.30;82.82;100801.25;5027509;28;20616;-62
2021/12/15 06:42:42;;;;;;;79.23;26.20;;;;;;;3.87;79.38;100773.81;5027246;28;20726;-64
2021/12/15 06:45:14;;;;;;;75.80;26.63;;;;;;;2.84;83.39;100818.22;5028085;28;20240;-64
2021/12/15 06:58:43;;;;;;;77.63;23.80;;;;;;;4.17;77.56;100770.88;5003899;28;21574;-63
2021/12/15 07:01:13;;;;;;;70.17;22.60;;;;;;;3.81;79.10;100780.38;5027122;28;20677;-64
2021/12/15 07:03:41;;;;;;;62.00;22.30;;;;;;;4.01;75.93;100752.59;5034441;28;20240;-64
2021/12/15 07:06:08;;;;;;;68.27;23.40;;;;;;;4.26;75.97;100762.31;5027118;28;20311;-63
2021/12/15 07:08:36;;;;;;;53.60;21.17;;;;;;;4.26;75.08;100756.19;5027208;28;20232;-64
2021/12/15 07:11:05;;;;;;;52.97;19.97;;;;;;;4.82;74.23;100774.28;5027102;28;20224;-64
2021/12/15 07:13:33;;;;;;;56.27;22.83;;;;;;;3.96;77.41;100794.31;5026339;28;20225;-63
2021/12/15 07:16:05;;;;;;;61.10;21.70;;;;;;;5.05;73.19;100778.81;5027418;28;20236;-64
2021/12/15 07:18:49;;;;;;;63.20;23.27;;;;;;;4.40;74.85;100787.78;5026009;28;20235;-63
2021/12/15 07:21:22;;;;;;;58.80;23.73;;;;;;;4.73;74.20;100789.00;5030310;28;20254;-63
2021/12/15 07:23:53;;;;;;;54.87;21.50;;;;;;;4.61;74.53;100792.53;5030895;28;20235;-64
2021/12/15 07:26:21;;;;;;;69.43;24.17;;;;;;;5.12;72.63;100786.31;5029303;28;20228;-64
2021/12/15 07:28:48;;;;;;;66.17;22.93;;;;;;;5.22;71.56;100772.28;5010429;28;20234;-63
2021/12/15 07:31:16;;;;;;;60.27;22.07;;;;;;;4.56;74.15;100787.56;5011429;28;20229;-64
2021/12/15 07:33:44;;;;;;;62.00;22.93;;;;;;;5.06;72.75;100795.53;5012123;28;20232;-64
2021/12/15 07:36:11;;;;;;;63.70;23.30;;;;;;;4.60;73.46;100791.66;5028837;28;20242;-64
2021/12/15 07:38:41;;;;;;;52.90;20.80;;;;;;;4.70;73.87;100813.00;5031031;28;20242;-63
2021/12/15 07:41:24;;;;;;;65.80;22.33;;;;;;;5.16;72.13;100807.16;5020065;28;20235;-64
2021/12/15 07:43:53;;;;;;;64.13;24.03;;;;;;;4.80;73.01;100806.13;5030641;28;20231;-64
2021/12/15 07:46:40;;;;;;;78.73;26.23;;;;;;;5.53;70.67;100814.19;5030347;28;20596;-64
2021/12/15 07:49:07;;;;;;;73.10;23.97;;;;;;;5.56;70.02;100804.22;5031164;28;20251;-64
2021/12/15 07:51:34;;;;;;;79.37;23.93;;;;;;;4.81;72.35;100815.75;5030481;28;20243;-64
2021/12/15 07:54:01;;;;;;;68.47;21.97;;;;;;;4.27;75.68;100840.63;5030935;28;20250;-66
2021/12/15 07:56:28;;;;;;;63.97;23.53;;;;;;;4.86;72.90;100820.72;5043678;28;20242;-64
2021/12/15 07:58:55;;;;;;;58.83;20.80;;;;;;;5.38;71.29;100813.50;5030747;28;20726;-64
2021/12/15 08:01:23;;;;;;;61.10;20.93;;;;;;;4.99;72.05;100807.50;5030465;28;20243;-64
2021/12/15 08:03:54;;;;;;;66.03;22.70;;;;;;;4.98;72.12;100814.59;5045595;28;20228;-64
2021/12/15 08:06:23;;;;;;;78.07;24.77;;;;;;;5.84;69.59;100815.41;5030656;28;20658;-64
2021/12/15 08:08:51;;;;;;;75.30;24.63;;;;;;;5.34;71.32;100812.03;5030727;28;20687;-63
2021/12/15 08:11:19;;;;;;;85.83;26.40;;;;;;;5.25;71.66;100822.34;5025800;28;20229;-64
2021/12/15 08:13:46;;;;;;;85.13;26.67;;;;;;;4.63;72.22;100827.63;5027307;28;20242;-64
2021/12/15 08:16:14;;;;;;;95.00;26.47;;;;;;;5.08;72.84;100842.06;5030155;28;20331;-64
2021/12/15 08:18:41;;;;;;;82.60;27.43;;;;;;;5.51;70.07;100827.53;5028425;28;20302;-64
2021/12/15 08:21:09;;;;;;;94.73;33.93;;;;;;;5.71;70.04;100834.00;5030315;28;20225;-64
2021/12/15 08:23:36;;;;;;;83.33;28.57;;;;;;;5.89;69.45;100839.72;5030757;28;20245;-63
2021/12/15 08:26:04;;;;;;;81.57;27.17;;;;;;;6.04;68.93;100832.44;5030723;28;20237;-63
2021/12/15 08:28:31;;;;;;;73.23;25.77;;;;;;;6.01;69.14;100835.31;5029488;28;20225;-64
2021/12/15 08:30:59;;;;;;;89.00;29.70;;;;;;;5.57;70.33;100840.31;5025571;28;20314;-64
2021/12/15 08:33:27;;;;;;;70.40;26.63;;;;;;;5.84;69.32;100833.94;5009013;28;20233;-64
2021/12/15 08:35:58;;;;;;;89.63;26.23;;;;;;;5.67;70.01;100834.34;5014668;28;20237;-64
2021/12/15 08:38:27;;;;;;;84.73;26.30;;;;;;;5.62;70.36;100835.53;5026315;28;20224;-64
2021/12/15 08:40:54;;;;;;;81.17;26.23;;;;;;;5.89;69.45;100844.19;5014566;28;20257;-64
2021/12/15 08:43:24;;;;;;;93.57;26.40;;;;;;;5.73;70.21;100841.81;5030375;28;20229;-64
2021/12/15 08:45:59;;;;;;;92.60;26.73;;;;;;;5.49;71.15;100841.84;5016563;28;20241;-64
2021/12/15 08:48:25;;;;;;;84.57;26.33;;;;;;;5.06;73.37;100861.66;5026676;28;20380;-64
2021/12/15 08:50:53;;;;;;;83.50;27.10;;;;;;;5.90;70.08;100843.22;5014834;28;20235;-64
2021/12/15 08:53:25;;;;;;;84.90;27.43;;;;;;;5.90;69.72;100833.50;5020902;28;20713;-64
2021/12/15 08:55:52;;;;;;;73.07;25.17;;;;;;;4.67;74.20;100864.31;5021272;28;20243;-64
2021/12/15 08:58:21;;;;;;;84.17;26.47;;;;;;;4.49;75.88;100874.34;5021059;28;20220;-64
2021/12/15 09:00:51;;;;;;;81.60;28.03;;;;;;;5.05;73.77;100865.25;5029370;28;20225;-64
2021/12/15 09:03:20;;;;;;;86.00;27.97;;;;;;;5.77;70.99;100838.84;5029769;28;20255;-64
2021/12/15 09:05:53;;;;;;;70.77;27.27;;;;;;;5.99;70.00;100843.38;5016934;28;20235;-64
2021/12/15 09:08:23;;;;;;;80.23;26.97;;;;;;;5.51;71.28;100832.81;5025623;28;20220;-64
2021/12/15 09:10:53;;;;;;;71.00;25.47;;;;;;;5.72;71.07;100835.69;5029152;28;20236;-64
2021/12/15 09:13:21;;;;;;;72.03;26.73;;;;;;;5.72;70.09;100833.03;5022573;28;20224;-64
2021/12/15 09:15:48;;;;;;;67.77;26.37;;;;;;;5.88;70.36;100839.84;5003224;28;20729;-64
2021/12/15 09:18:15;;;;;;;72.43;26.20;;;;;;;4.36;75.58;100868.19;5009409;28;20243;-64
2021/12/15 09:20:43;;;;;;;63.23;23.47;;;;;;;5.05;73.94;100865.25;5029295;28;20227;-63
2021/12/15 09:23:14;;;;;;;53.43;23.17;;;;;;;5.27;73.24;100846.88;5029404;28;20764;-64
2021/12/15 09:25:42;;;;;;;52.03;22.67;;;;;;;5.64;71.34;100841.53;5029222;28;20240;-64
2021/12/15 09:28:10;;;;;;;49.53;22.53;;;;;;;5.47;71.86;100836.66;5029727;28;20239;-64
2021/12/15 09:30:44;;;;;;;43.70;21.13;;;;;;;5.67;71.46;100832.53;5027941;28;20359;-63
2021/12/15 09:33:12;;;;;;;53.07;22.83;;;;;;;5.29;72.27;100838.81;5029080;28;20240;-64
2021/12/15 09:35:39;;;;;;;42.60;20.67;;;;;;;5.03;73.79;100843.34;5026394;28;20236;-63
2021/12/15 09:38:07;;;;;;;42.90;21.67;;;;;;;5.05;73.86;100855.50;5018595;28;20237;-64
2021/12/15 09:40:34;;;;;;;39.80;20.43;;;;;;;4.92;75.15;100854.69;5025346;28;20697;-63
2021/12/15 09:43:03;;;;;;;40.13;19.90;;;;;;;4.75;76.04;100866.41;5023095;28;20224;-64
2021/12/15 09:45:50;;;;;;;44.27;20.97;;;;;;;5.51;73.17;100840.75;5001777;28;20222;-64
2021/12/15 09:57:01;;;;;;;43.40;20.87;;;;;;;5.15;73.92;100853.06;5012267;28;20230;-64
2021/12/15 10:04:32;;;;;;;41.60;20.80;;;;;;;5.53;73.38;100849.44;5028271;28;20237;-64
2021/12/15 10:18:23;;;;;;;36.87;21.23;;;;;;;6.13;71.73;100833.53;5028160;28;20245;-64
2021/12/15 10:20:51;;;;;;;38.17;20.77;;;;;;;5.54;73.10;100837.88;5025401;28;20551;-64
2021/12/15 10:23:24;;;;;;;34.27;19.10;;;;;;;5.74;72.70;100823.19;5018758;28;20236;-64
2021/12/15 10:25:54;;;;;;;33.93;20.27;;;;;;;5.62;72.59;100824.94;5007966;28;20237;-65
2021/12/15 10:28:27;;;;;;;37.00;21.13;;;;;;;5.71;72.98;100835.81;5006731;28;20225;-64
2021/12/15 10:30:55;;;;;;;43.23;22.73;;;;;;;5.40;73.50;100827.47;5008419;28;20616;-63
2021/12/15 10:33:40;;;;;;;46.27;26.00;;;;;;;5.75;72.78;100819.59;5008642;28;20225;-64
2021/12/15 10:36:22;;;;;;;35.63;19.37;;;;;;;6.01;72.68;100828.22;5007480;28;20612;-64
2021/12/15 10:38:53;;;;;;;32.67;20.70;;;;;;;5.15;74.68;100820.47;5010912;28;20220;-64
2021/12/15 10:41:32;;;;;;;33.30;20.03;;;;;;;5.16;74.48;100812.44;5016152;28;20221;-64
2021/12/15 10:44:22;;;;;;;35.00;19.80;;;;;;;5.26;73.99;100810.81;5016138;28;20233;-64
2021/12/15 10:47:04;;;;;;;29.23;19.07;;;;;;;4.70;78.34;100848.25;5008793;28;20263;-64
2021/12/15 10:49:36;;;;;;;26.23;16.87;;;;;;;5.14;76.58;100832.84;5043308;28;20309;-64
2021/12/15 10:52:09;;;;;;;29.80;18.03;;;;;;;5.69;74.13;100811.25;5024968;28;20236;-64
2021/12/15 10:54:38;;;;;;;31.13;17.50;;;;;;;5.82;73.11;100806.75;5026586;28;20320;-64
2021/12/15 10:57:17;;;;;;;25.80;16.87;;;;;;;5.77;73.91;100814.19;5007052;28;20592;-64
2021/12/15 10:59:51;;;;;;;27.40;17.00;;;;;;;5.61;73.80;100801.22;5027475;28;20296;-64
2021/12/15 11:03:44;;;;;;;28.07;16.87;;;;;;;4.91;75.75;100813.34;5088239;27;20313;-66
2021/12/15 11:06:21;;;;;;;24.37;15.70;;;;;;;4.02;78.15;100825.59;5081501;28;20230;-66
2021/12/15 11:08:48;;;;;;;21.83;14.50;;;;;;;3.19;81.60;100854.69;5083776;28;20223;-66
2021/12/15 11:11:28;;;;;;;22.40;13.87;;;;;;;3.96;81.33;100845.31;5065928;28;20250;-66
2021/12/15 11:13:55;;;;;;;19.60;13.03;;;;;;;3.55;80.52;100840.13;5079829;28;20230;-66
2021/12/15 11:16:30;;;;;;;17.13;12.37;;;;;;;3.46;81.87;100848.66;5083653;28;20702;-64
2021/12/15 11:18:58;;;;;;;20.33;12.43;;;;;;;4.13;80.02;100824.84;5085218;28;20603;-63
2021/12/15 11:21:31;;;;;;;22.03;12.77;;;;;;;3.80;79.48;100827.00;5077454;28;20286;-63
2021/12/15 11:23:58;;;;;;;22.67;14.23;;;;;;;4.32;77.54;100805.97;5082804;28;20222;-63
2021/12/15 11:26:25;;;;;;;22.33;13.07;;;;;;;4.65;76.29;100794.00;5084059;28;20236;-63
2021/12/15 11:28:52;;;;;;;18.40;12.27;;;;;;;4.94;76.49;100791.13;5076688;28;20697;-63
2021/12/15 11:31:31;;;;;;;19.63;12.60;;;;;;;4.51;77.87;100801.09;5064165;28;20740;-63
2021/12/15 11:34:01;;;;;;;19.13;12.80;;;;;;;4.87;75.58;100785.38;5064326;28;20223;-63
2021/12/15 11:36:32;;;;;;;19.13;12.53;;;;;;;4.96;75.99;100795.34;5063873;28;20231;-63
2021/12/15 11:39:16;;;;;;;17.70;11.30;;;;;;;3.91;77.47;100805.19;5084026;28;20223;-63
2021/12/15 11:41:48;;;;;;;16.13;10.83;;;;;;;5.03;76.22;100788.66;5084220;28;20229;-63
2021/12/15 11:44:21;;;;;;;16.90;10.50;;;;;;;4.07;77.53;100810.28;5083647;28;20614;-62
2021/12/15 11:46:58;;;;;;;10.77;8.00;;;;;;;3.17;77.69;100819.66;5076847;28;20677;-63
2021/12/15 11:49:29;;;;;;;11.73;8.37;;;;;;;3.72;77.44;100810.81;5073818;28;20222;-63
2021/12/15 11:52:04;;;;;;;14.43;9.50;;;;;;;3.63;78.10;100806.19;5071957;28;20227;-63
2021/12/15 11:54:36;;;;;;;13.83;9.90;;;;;;;3.65;79.23;100814.81;5085646;27;20227;-63
2021/12/15 11:57:15;;;;;;;15.97;11.10;;;;;;;4.63;75.52;100772.97;5091595;28;20222;-63
2021/12/15 11:59:49;;;;;;;16.30;10.33;;;;;;;5.34;73.67;100753.84;5092090;28;20314;-63
2021/12/15 12:02:24;;;;;;;16.20;11.07;;;;;;;4.02;77.16;100779.84;5092562;27;20667;-62
2021/12/15 12:04:52;;;;;;;18.77;12.27;;;;;;;5.44;73.70;100762.78;5104524;27;20224;-62
2021/12/15 12:07:28;;;;;;;15.77;11.17;;;;;;;5.04;74.73;100765.69;5102226;28;20244;-63
2021/12/15 12:10:06;;;;;;;15.33;11.30;;;;;;;4.31;75.66;100769.94;5089741;27;20223;-63
2021/12/15 12:12:40;;;;;;;16.00;10.63;;;;;;;3.94;77.52;100775.09;5083396;28;20979;-64
2021/12/15 12:15:13;;;;;;;19.00;11.90;;;;;;;5.07;73.07;100731.97;5070102;28;20315;-64
2021/12/15 12:17:44;;;;;;;17.43;12.53;;;;;;;5.02;75.24;100751.75;5072146;28;20225;-63
2021/12/15 12:20:16;;;;;;;19.60;12.70;;;;;;;5.18;74.85;100754.97;5075587;28;20215;-63
2021/12/15 12:22:45;;;;;;;31.13;17.53;;;;;;;5.95;72.10;100728.06;5075202;28;21352;-63
2021/12/15 12:25:20;;;;;;;18.33;12.70;;;;;;;5.09;73.36;100745.03;5071326;28;20219;-63
2021/12/15 12:27:48;;;;;;;16.30;11.77;;;;;;;5.45;72.54;100727.44;5076094;28;20229;-64
2021/12/15 12:30:24;;;;;;;26.60;16.50;;;;;;;5.65;71.93;100726.78;5073865;28;20218;-63
2021/12/15 12:32:53;;;;;;;34.10;19.07;;;;;;;5.69;72.63;100739.78;5060702;28;20211;-63
2021/12/15 12:35:23;;;;;;;15.30;11.03;;;;;;;5.44;72.34;100728.38;5076699;28;20252;-62
2021/12/15 12:38:00;;;;;;;18.10;12.23;;;;;;;5.73;71.99;100733.28;5078952;28;20217;-63
2021/12/15 12:40:33;;;;;;;17.07;10.73;;;;;;;5.04;74.41;100753.34;5076746;28;20224;-63
2021/12/15 12:43:16;;;;;;;13.77;9.57;;;;;;;5.79;72.15;100738.13;5071561;28;20712;-63